sensor_id;sensor_type;location;lat;lon;timestamp;P1;durP1;ratioP1;P2;durP2;ratioP2
18449;SDS011;9354;50.194;7.690;2023-06-10T00:01:46;10.03;;;6.40;;
18449;SDS011;9354;50.194;7.690;2023-06-10T00:04:14;13.73;;;6.90;;
18449;SDS011;9354;50.194;7.690;2023-06-10T00:06:42;9.80;;;6.67;;
18449;SDS011;9354;50.194;7.690;2023-06-10T00:09:11;10.63;;;6.77;;
18449;SDS011;9354;50.194;7.690;2023-06-10T00:11:39;10.53;;;6.43;;
18449;SDS011;9354;50.194;7.690;2023-06-10T00:14:08;11.10;;;6.87;;
18449;SDS011;9354;50.194;7.690;2023-06-10T00:16:35;9.33;;;6.50;;
18449;SDS011;9354;50.194;7.690;2023-06-10T00:19:04;13.60;;;6.70;;
18449;SDS011;9354;50.194;7.690;2023-06-10T00:21:34;10.17;;;6.93;;
18449;SDS011;9354;50.194;7.690;2023-06-10T00:24:03;11.03;;;6.87;;
18449;SDS011;9354;50.194;7.690;2023-06-10T00:26:33;10.47;;;7.30;;
18449;SDS011;9354;50.194;7.690;2023-06-10T00:29:01;13.97;;;7.10;;
18449;SDS011;9354;50.194;7.690;2023-06-10T00:31:28;10.57;;;6.77;;
18449;SDS011;9354;50.194;7.690;2023-06-10T00:33:56;15.17;;;6.77;;
18449;SDS011;9354;50.194;7.690;2023-06-10T00:36:24;10.20;;;7.13;;
18449;SDS011;9354;50.194;7.690;2023-06-10T00:38:52;11.03;;;7.33;;
18449;SDS011;9354;50.194;7.690;2023-06-10T00:41:19;10.90;;;7.03;;
18449;SDS011;9354;50.194;7.690;2023-06-10T00:43:48;10.03;;;6.93;;
18449;SDS011;9354;50.194;7.690;2023-06-10T00:46:15;7.77;;;6.23;;
18449;SDS011;9354;50.194;7.690;2023-06-10T00:48:44;8.53;;;6.77;;
18449;SDS011;9354;50.194;7.690;2023-06-10T00:51:12;13.10;;;6.93;;
18449;SDS011;9354;50.194;7.690;2023-06-10T00:53:40;11.67;;;7.27;;
18449;SDS011;9354;50.194;7.690;2023-06-10T00:56:08;11.73;;;6.60;;
18449;SDS011;9354;50.194;7.690;2023-06-10T00:58:36;10.10;;;7.07;;
18449;SDS011;9354;50.194;7.690;2023-06-10T01:01:04;14.27;;;7.03;;
18449;SDS011;9354;50.194;7.690;2023-06-10T01:03:32;12.63;;;6.70;;
18449;SDS011;9354;50.194;7.690;2023-06-10T01:06:04;13.20;;;7.30;;
18449;SDS011;9354;50.194;7.690;2023-06-10T01:08:40;9.87;;;7.10;;
18449;SDS011;9354;50.194;7.690;2023-06-10T01:11:14;10.20;;;6.67;;
18449;SDS011;9354;50.194;7.690;2023-06-10T01:13:47;11.13;;;6.80;;
18449;SDS011;9354;50.194;7.690;2023-06-10T01:16:19;13.53;;;7.07;;
18449;SDS011;9354;50.194;7.690;2023-06-10T01:18:48;10.97;;;6.60;;
18449;SDS011;9354;50.194;7.690;2023-06-10T01:21:21;10.83;;;7.20;;
18449;SDS011;9354;50.194;7.690;2023-06-10T01:23:51;12.93;;;6.93;;
18449;SDS011;9354;50.194;7.690;2023-06-10T01:26:19;13.50;;;6.87;;
18449;SDS011;9354;50.194;7.690;2023-06-10T01:28:54;12.23;;;7.03;;
18449;SDS011;9354;50.194;7.690;2023-06-10T01:31:31;12.00;;;7.07;;
18449;SDS011;9354;50.194;7.690;2023-06-10T01:34:06;18.80;;;7.50;;
18449;SDS011;9354;50.194;7.690;2023-06-10T01:36:38;10.90;;;7.20;;
18449;SDS011;9354;50.194;7.690;2023-06-10T01:39:09;10.00;;;7.03;;
18449;SDS011;9354;50.194;7.690;2023-06-10T01:41:38;12.17;;;6.90;;
18449;SDS011;9354;50.194;7.690;2023-06-10T01:44:06;12.73;;;7.20;;
18449;SDS011;9354;50.194;7.690;2023-06-10T01:46:34;10.97;;;6.73;;
18449;SDS011;9354;50.194;7.690;2023-06-10T01:49:02;9.70;;;7.23;;
18449;SDS011;9354;50.194;7.690;2023-06-10T01:51:29;11.30;;;7.20;;
18449;SDS011;9354;50.194;7.690;2023-06-10T01:53:58;10.67;;;6.80;;
18449;SDS011;9354;50.194;7.690;2023-06-10T01:56:25;15.90;;;7.30;;
18449;SDS011;9354;50.194;7.690;2023-06-10T01:58:53;13.30;;;7.30;;
18449;SDS011;9354;50.194;7.690;2023-06-10T02:01:24;11.03;;;7.57;;
18449;SDS011;9354;50.194;7.690;2023-06-10T02:03:52;14.47;;;7.50;;
18449;SDS011;9354;50.194;7.690;2023-06-10T02:06:19;11.90;;;7.13;;
18449;SDS011;9354;50.194;7.690;2023-06-10T02:08:46;11.10;;;7.40;;
18449;SDS011;9354;50.194;7.690;2023-06-10T02:11:15;12.30;;;6.90;;
18449;SDS011;9354;50.194;7.690;2023-06-10T02:13:43;8.07;;;6.47;;
18449;SDS011;9354;50.194;7.690;2023-06-10T02:16:10;12.00;;;7.20;;
18449;SDS011;9354;50.194;7.690;2023-06-10T02:18:38;11.80;;;7.87;;
18449;SDS011;9354;50.194;7.690;2023-06-10T02:21:08;13.33;;;7.73;;
18449;SDS011;9354;50.194;7.690;2023-06-10T02:23:36;17.33;;;8.40;;
18449;SDS011;9354;50.194;7.690;2023-06-10T02:26:03;13.03;;;7.47;;
18449;SDS011;9354;50.194;7.690;2023-06-10T02:28:32;11.83;;;7.47;;
18449;SDS011;9354;50.194;7.690;2023-06-10T02:31:00;10.93;;;7.10;;
18449;SDS011;9354;50.194;7.690;2023-06-10T02:33:27;13.00;;;7.60;;
18449;SDS011;9354;50.194;7.690;2023-06-10T02:35:55;12.03;;;7.40;;
18449;SDS011;9354;50.194;7.690;2023-06-10T02:38:22;11.43;;;7.77;;
18449;SDS011;9354;50.194;7.690;2023-06-10T02:40:50;10.77;;;7.63;;
18449;SDS011;9354;50.194;7.690;2023-06-10T02:43:18;15.87;;;8.87;;
18449;SDS011;9354;50.194;7.690;2023-06-10T02:45:46;13.97;;;8.30;;
18449;SDS011;9354;50.194;7.690;2023-06-10T02:48:14;11.57;;;8.60;;
18449;SDS011;9354;50.194;7.690;2023-06-10T02:50:41;10.23;;;7.50;;
18449;SDS011;9354;50.194;7.690;2023-06-10T02:53:08;11.10;;;7.73;;
18449;SDS011;9354;50.194;7.690;2023-06-10T02:55:36;12.13;;;8.13;;
18449;SDS011;9354;50.194;7.690;2023-06-10T02:58:03;11.33;;;7.67;;
18449;SDS011;9354;50.194;7.690;2023-06-10T03:00:31;10.17;;;7.37;;
18449;SDS011;9354;50.194;7.690;2023-06-10T03:03:00;12.23;;;8.20;;
18449;SDS011;9354;50.194;7.690;2023-06-10T03:05:29;17.13;;;8.60;;
18449;SDS011;9354;50.194;7.690;2023-06-10T03:07:56;13.67;;;8.33;;
18449;SDS011;9354;50.194;7.690;2023-06-10T03:10:24;12.60;;;8.47;;
18449;SDS011;9354;50.194;7.690;2023-06-10T03:12:52;14.77;;;8.33;;
18449;SDS011;9354;50.194;7.690;2023-06-10T03:15:19;12.10;;;8.33;;
18449;SDS011;9354;50.194;7.690;2023-06-10T03:17:47;13.33;;;8.30;;
18449;SDS011;9354;50.194;7.690;2023-06-10T03:20:16;16.33;;;8.27;;
18449;SDS011;9354;50.194;7.690;2023-06-10T03:22:43;12.00;;;8.73;;
18449;SDS011;9354;50.194;7.690;2023-06-10T03:25:10;10.97;;;8.10;;
18449;SDS011;9354;50.194;7.690;2023-06-10T03:27:39;13.80;;;8.30;;
18449;SDS011;9354;50.194;7.690;2023-06-10T03:30:07;15.50;;;8.10;;
18449;SDS011;9354;50.194;7.690;2023-06-10T03:32:35;13.53;;;8.57;;
18449;SDS011;9354;50.194;7.690;2023-06-10T03:35:03;12.27;;;8.00;;
18449;SDS011;9354;50.194;7.690;2023-06-10T03:37:33;12.90;;;8.67;;
18449;SDS011;9354;50.194;7.690;2023-06-10T03:40:01;13.23;;;8.33;;
18449;SDS011;9354;50.194;7.690;2023-06-10T03:42:31;10.77;;;8.17;;
18449;SDS011;9354;50.194;7.690;2023-06-10T03:44:58;13.30;;;7.77;;
18449;SDS011;9354;50.194;7.690;2023-06-10T03:47:26;12.53;;;8.10;;
18449;SDS011;9354;50.194;7.690;2023-06-10T03:49:53;12.87;;;8.13;;
18449;SDS011;9354;50.194;7.690;2023-06-10T03:52:22;11.80;;;7.20;;
18449;SDS011;9354;50.194;7.690;2023-06-10T03:54:51;10.80;;;7.40;;
18449;SDS011;9354;50.194;7.690;2023-06-10T03:57:18;16.73;;;8.00;;
18449;SDS011;9354;50.194;7.690;2023-06-10T03:59:45;11.00;;;7.47;;
18449;SDS011;9354;50.194;7.690;2023-06-10T04:02:13;10.03;;;7.70;;
18449;SDS011;9354;50.194;7.690;2023-06-10T04:04:40;11.77;;;7.43;;
18449;SDS011;9354;50.194;7.690;2023-06-10T04:07:08;13.13;;;8.00;;
18449;SDS011;9354;50.194;7.690;2023-06-10T04:09:36;10.77;;;7.17;;
18449;SDS011;9354;50.194;7.690;2023-06-10T04:12:06;10.93;;;7.50;;
18449;SDS011;9354;50.194;7.690;2023-06-10T04:14:35;11.57;;;7.30;;
18449;SDS011;9354;50.194;7.690;2023-06-10T04:17:04;11.07;;;7.77;;
18449;SDS011;9354;50.194;7.690;2023-06-10T04:19:33;11.93;;;7.73;;
18449;SDS011;9354;50.194;7.690;2023-06-10T04:22:00;13.27;;;7.93;;
18449;SDS011;9354;50.194;7.690;2023-06-10T04:24:29;13.57;;;8.10;;
18449;SDS011;9354;50.194;7.690;2023-06-10T04:26:56;12.13;;;7.50;;
18449;SDS011;9354;50.194;7.690;2023-06-10T04:29:25;13.57;;;8.17;;
18449;SDS011;9354;50.194;7.690;2023-06-10T04:31:52;12.20;;;7.80;;
18449;SDS011;9354;50.194;7.690;2023-06-10T04:34:20;12.60;;;8.57;;
18449;SDS011;9354;50.194;7.690;2023-06-10T04:36:47;10.57;;;7.80;;
18449;SDS011;9354;50.194;7.690;2023-06-10T04:39:16;12.37;;;7.33;;
18449;SDS011;9354;50.194;7.690;2023-06-10T04:41:44;13.20;;;7.30;;
18449;SDS011;9354;50.194;7.690;2023-06-10T04:44:11;13.23;;;7.10;;
18449;SDS011;9354;50.194;7.690;2023-06-10T04:46:40;17.87;;;7.33;;
18449;SDS011;9354;50.194;7.690;2023-06-10T04:49:08;10.60;;;7.30;;
18449;SDS011;9354;50.194;7.690;2023-06-10T04:51:35;10.90;;;7.37;;
18449;SDS011;9354;50.194;7.690;2023-06-10T04:54:03;14.20;;;7.60;;
18449;SDS011;9354;50.194;7.690;2023-06-10T04:56:30;10.73;;;7.43;;
18449;SDS011;9354;50.194;7.690;2023-06-10T04:58:58;12.17;;;7.13;;
18449;SDS011;9354;50.194;7.690;2023-06-10T05:01:26;11.53;;;7.77;;
18449;SDS011;9354;50.194;7.690;2023-06-10T05:03:55;10.27;;;6.90;;
18449;SDS011;9354;50.194;7.690;2023-06-10T05:06:22;9.97;;;6.47;;
18449;SDS011;9354;50.194;7.690;2023-06-10T05:08:50;10.47;;;6.97;;
18449;SDS011;9354;50.194;7.690;2023-06-10T05:11:17;9.57;;;7.10;;
18449;SDS011;9354;50.194;7.690;2023-06-10T05:13:45;14.40;;;7.43;;
18449;SDS011;9354;50.194;7.690;2023-06-10T05:16:12;9.57;;;6.33;;
18449;SDS011;9354;50.194;7.690;2023-06-10T05:18:40;12.07;;;6.50;;
18449;SDS011;9354;50.194;7.690;2023-06-10T05:21:09;9.33;;;6.57;;
18449;SDS011;9354;50.194;7.690;2023-06-10T05:23:37;9.40;;;6.30;;
18449;SDS011;9354;50.194;7.690;2023-06-10T05:26:04;12.00;;;7.20;;
18449;SDS011;9354;50.194;7.690;2023-06-10T05:28:32;9.20;;;6.03;;
18449;SDS011;9354;50.194;7.690;2023-06-10T05:30:59;12.03;;;6.03;;
18449;SDS011;9354;50.194;7.690;2023-06-10T05:33:26;12.10;;;6.20;;
18449;SDS011;9354;50.194;7.690;2023-06-10T05:35:54;11.30;;;6.70;;
18449;SDS011;9354;50.194;7.690;2023-06-10T05:38:23;9.80;;;6.17;;
18449;SDS011;9354;50.194;7.690;2023-06-10T05:40:50;12.20;;;6.80;;
18449;SDS011;9354;50.194;7.690;2023-06-10T05:43:18;13.33;;;6.50;;
18449;SDS011;9354;50.194;7.690;2023-06-10T05:45:45;12.13;;;6.10;;
18449;SDS011;9354;50.194;7.690;2023-06-10T05:48:12;9.17;;;5.87;;
18449;SDS011;9354;50.194;7.690;2023-06-10T05:50:40;12.03;;;6.10;;
18449;SDS011;9354;50.194;7.690;2023-06-10T05:53:10;13.47;;;6.90;;
18449;SDS011;9354;50.194;7.690;2023-06-10T05:55:42;9.50;;;5.47;;
18449;SDS011;9354;50.194;7.690;2023-06-10T05:58:12;11.07;;;6.63;;
18449;SDS011;9354;50.194;7.690;2023-06-10T06:00:40;10.30;;;6.30;;
18449;SDS011;9354;50.194;7.690;2023-06-10T06:03:08;9.43;;;6.73;;
18449;SDS011;9354;50.194;7.690;2023-06-10T06:05:36;9.67;;;6.00;;
18449;SDS011;9354;50.194;7.690;2023-06-10T06:08:04;9.63;;;6.30;;
18449;SDS011;9354;50.194;7.690;2023-06-10T06:10:31;10.67;;;5.97;;
18449;SDS011;9354;50.194;7.690;2023-06-10T06:13:00;19.63;;;6.63;;
18449;SDS011;9354;50.194;7.690;2023-06-10T06:15:28;9.43;;;5.80;;
18449;SDS011;9354;50.194;7.690;2023-06-10T06:17:56;10.30;;;5.40;;
18449;SDS011;9354;50.194;7.690;2023-06-10T06:20:23;6.93;;;5.47;;
18449;SDS011;9354;50.194;7.690;2023-06-10T06:22:50;8.70;;;5.47;;
18449;SDS011;9354;50.194;7.690;2023-06-10T06:25:18;10.83;;;5.70;;
18449;SDS011;9354;50.194;7.690;2023-06-10T06:27:45;8.67;;;5.77;;
18449;SDS011;9354;50.194;7.690;2023-06-10T06:30:14;8.17;;;5.70;;
18449;SDS011;9354;50.194;7.690;2023-06-10T06:32:41;9.17;;;5.60;;
18449;SDS011;9354;50.194;7.690;2023-06-10T06:35:09;7.70;;;5.40;;
18449;SDS011;9354;50.194;7.690;2023-06-10T06:37:36;9.83;;;5.47;;
18449;SDS011;9354;50.194;7.690;2023-06-10T06:40:04;8.87;;;5.27;;
18449;SDS011;9354;50.194;7.690;2023-06-10T06:42:32;9.10;;;5.87;;
18449;SDS011;9354;50.194;7.690;2023-06-10T06:45:00;8.27;;;5.33;;
18449;SDS011;9354;50.194;7.690;2023-06-10T06:47:29;9.23;;;5.50;;
18449;SDS011;9354;50.194;7.690;2023-06-10T06:49:56;9.90;;;5.73;;
18449;SDS011;9354;50.194;7.690;2023-06-10T06:52:24;10.33;;;5.87;;
18449;SDS011;9354;50.194;7.690;2023-06-10T06:54:51;7.90;;;5.63;;
18449;SDS011;9354;50.194;7.690;2023-06-10T06:57:18;11.03;;;6.30;;
18449;SDS011;9354;50.194;7.690;2023-06-10T06:59:46;7.90;;;5.50;;
18449;SDS011;9354;50.194;7.690;2023-06-10T07:02:13;11.07;;;5.67;;
18449;SDS011;9354;50.194;7.690;2023-06-10T07:04:42;8.80;;;5.17;;
18449;SDS011;9354;50.194;7.690;2023-06-10T07:07:09;8.47;;;5.20;;
18449;SDS011;9354;50.194;7.690;2023-06-10T07:09:37;10.77;;;5.80;;
18449;SDS011;9354;50.194;7.690;2023-06-10T07:12:04;8.33;;;5.53;;
18449;SDS011;9354;50.194;7.690;2023-06-10T07:14:33;10.03;;;6.10;;
18449;SDS011;9354;50.194;7.690;2023-06-10T07:17:00;10.73;;;5.50;;
18449;SDS011;9354;50.194;7.690;2023-06-10T07:19:27;10.00;;;5.67;;
18449;SDS011;9354;50.194;7.690;2023-06-10T07:21:56;13.00;;;5.97;;
18449;SDS011;9354;50.194;7.690;2023-06-10T07:24:24;9.47;;;5.40;;
18449;SDS011;9354;50.194;7.690;2023-06-10T07:26:51;8.43;;;5.07;;
18449;SDS011;9354;50.194;7.690;2023-06-10T07:29:18;9.33;;;6.47;;
18449;SDS011;9354;50.194;7.690;2023-06-10T07:31:46;14.17;;;5.87;;
18449;SDS011;9354;50.194;7.690;2023-06-10T07:34:13;8.70;;;5.70;;
18449;SDS011;9354;50.194;7.690;2023-06-10T07:36:40;12.23;;;5.57;;
18449;SDS011;9354;50.194;7.690;2023-06-10T07:39:09;7.90;;;5.30;;
18449;SDS011;9354;50.194;7.690;2023-06-10T07:41:37;9.27;;;5.83;;
18449;SDS011;9354;50.194;7.690;2023-06-10T07:44:04;9.40;;;5.50;;
18449;SDS011;9354;50.194;7.690;2023-06-10T07:46:31;9.07;;;5.93;;
18449;SDS011;9354;50.194;7.690;2023-06-10T07:48:59;10.17;;;6.00;;
18449;SDS011;9354;50.194;7.690;2023-06-10T07:51:26;9.57;;;5.63;;
18449;SDS011;9354;50.194;7.690;2023-06-10T07:53:54;7.93;;;5.30;;
18449;SDS011;9354;50.194;7.690;2023-06-10T07:56:22;10.97;;;6.07;;
18449;SDS011;9354;50.194;7.690;2023-06-10T07:58:51;10.80;;;5.53;;
18449;SDS011;9354;50.194;7.690;2023-06-10T08:01:18;8.37;;;5.47;;
18449;SDS011;9354;50.194;7.690;2023-06-10T08:03:46;10.73;;;5.73;;
18449;SDS011;9354;50.194;7.690;2023-06-10T08:06:13;14.10;;;7.20;;
18449;SDS011;9354;50.194;7.690;2023-06-10T08:08:42;9.17;;;5.50;;
18449;SDS011;9354;50.194;7.690;2023-06-10T08:11:11;10.80;;;5.27;;
18449;SDS011;9354;50.194;7.690;2023-06-10T08:13:40;9.60;;;6.13;;
18449;SDS011;9354;50.194;7.690;2023-06-10T08:16:07;13.40;;;5.57;;
18449;SDS011;9354;50.194;7.690;2023-06-10T08:18:35;8.40;;;5.80;;
18449;SDS011;9354;50.194;7.690;2023-06-10T08:21:03;7.63;;;5.60;;
18449;SDS011;9354;50.194;7.690;2023-06-10T08:23:30;8.87;;;5.80;;
18449;SDS011;9354;50.194;7.690;2023-06-10T08:25:57;9.87;;;5.80;;
18449;SDS011;9354;50.194;7.690;2023-06-10T08:28:25;7.03;;;5.53;;
18449;SDS011;9354;50.194;7.690;2023-06-10T08:30:54;10.17;;;5.93;;
18449;SDS011;9354;50.194;7.690;2023-06-10T08:33:21;11.57;;;6.00;;
18449;SDS011;9354;50.194;7.690;2023-06-10T08:35:48;11.10;;;5.50;;
18449;SDS011;9354;50.194;7.690;2023-06-10T08:38:16;17.27;;;6.47;;
18449;SDS011;9354;50.194;7.690;2023-06-10T08:40:43;9.13;;;5.33;;
18449;SDS011;9354;50.194;7.690;2023-06-10T08:43:17;9.33;;;6.07;;
18449;SDS011;9354;50.194;7.690;2023-06-10T08:45:57;8.33;;;6.03;;
18449;SDS011;9354;50.194;7.690;2023-06-10T08:48:28;11.90;;;5.90;;
18449;SDS011;9354;50.194;7.690;2023-06-10T08:50:57;8.53;;;5.53;;
18449;SDS011;9354;50.194;7.690;2023-06-10T08:53:24;16.17;;;7.03;;
18449;SDS011;9354;50.194;7.690;2023-06-10T08:55:53;9.82;;;6.30;;
18449;SDS011;9354;50.194;7.690;2023-06-10T08:58:25;9.03;;;5.43;;
18449;SDS011;9354;50.194;7.690;2023-06-10T09:00:53;9.60;;;6.17;;
18449;SDS011;9354;50.194;7.690;2023-06-10T09:03:22;9.70;;;5.60;;
18449;SDS011;9354;50.194;7.690;2023-06-10T09:05:51;10.33;;;5.73;;
18449;SDS011;9354;50.194;7.690;2023-06-10T09:08:18;11.17;;;5.90;;
18449;SDS011;9354;50.194;7.690;2023-06-10T09:10:46;7.03;;;5.33;;
18449;SDS011;9354;50.194;7.690;2023-06-10T09:13:14;14.33;;;5.30;;
18449;SDS011;9354;50.194;7.690;2023-06-10T09:15:44;9.03;;;5.50;;
18449;SDS011;9354;50.194;7.690;2023-06-10T09:18:11;7.27;;;5.67;;
18449;SDS011;9354;50.194;7.690;2023-06-10T09:20:41;9.02;;;6.15;;
18449;SDS011;9354;50.194;7.690;2023-06-10T09:23:09;8.10;;;5.43;;
18449;SDS011;9354;50.194;7.690;2023-06-10T09:25:37;10.07;;;4.95;;
18449;SDS011;9354;50.194;7.690;2023-06-10T09:28:08;7.10;;;4.75;;
18449;SDS011;9354;50.194;7.690;2023-06-10T09:30:40;11.90;;;5.20;;
18449;SDS011;9354;50.194;7.690;2023-06-10T09:33:10;7.38;;;5.22;;
18449;SDS011;9354;50.194;7.690;2023-06-10T09:35:45;9.35;;;4.72;;
18449;SDS011;9354;50.194;7.690;2023-06-10T09:38:14;6.68;;;4.88;;
18449;SDS011;9354;50.194;7.690;2023-06-10T09:40:48;7.10;;;5.25;;
18449;SDS011;9354;50.194;7.690;2023-06-10T09:43:17;6.35;;;4.93;;
18449;SDS011;9354;50.194;7.690;2023-06-10T09:45:47;6.75;;;4.97;;
18449;SDS011;9354;50.194;7.690;2023-06-10T09:48:15;13.77;;;5.07;;
18449;SDS011;9354;50.194;7.690;2023-06-10T09:50:46;8.52;;;5.65;;
18449;SDS011;9354;50.194;7.690;2023-06-10T09:53:14;9.52;;;5.55;;
18449;SDS011;9354;50.194;7.690;2023-06-10T09:55:44;8.10;;;5.30;;
18449;SDS011;9354;50.194;7.690;2023-06-10T09:58:12;11.93;;;4.82;;
18449;SDS011;9354;50.194;7.690;2023-06-10T10:00:39;7.63;;;5.22;;
18449;SDS011;9354;50.194;7.690;2023-06-10T10:03:06;8.52;;;4.88;;
18449;SDS011;9354;50.194;7.690;2023-06-10T10:05:34;7.00;;;5.10;;
18449;SDS011;9354;50.194;7.690;2023-06-10T10:08:03;9.80;;;5.57;;
18449;SDS011;9354;50.194;7.690;2023-06-10T10:10:30;8.63;;;5.00;;
18449;SDS011;9354;50.194;7.690;2023-06-10T10:12:58;9.18;;;5.20;;
18449;SDS011;9354;50.194;7.690;2023-06-10T10:15:28;8.55;;;5.18;;
18449;SDS011;9354;50.194;7.690;2023-06-10T10:18:00;8.75;;;5.13;;
18449;SDS011;9354;50.194;7.690;2023-06-10T10:20:33;6.93;;;4.50;;
18449;SDS011;9354;50.194;7.690;2023-06-10T10:23:03;5.95;;;4.45;;
18449;SDS011;9354;50.194;7.690;2023-06-10T10:25:32;9.65;;;4.97;;
18449;SDS011;9354;50.194;7.690;2023-06-10T10:28:05;6.80;;;5.10;;
18449;SDS011;9354;50.194;7.690;2023-06-10T10:30:39;9.02;;;4.75;;
18449;SDS011;9354;50.194;7.690;2023-06-10T10:33:09;9.30;;;4.50;;
18449;SDS011;9354;50.194;7.690;2023-06-10T10:35:42;9.00;;;4.65;;
18449;SDS011;9354;50.194;7.690;2023-06-10T10:38:12;16.85;;;4.63;;
18449;SDS011;9354;50.194;7.690;2023-06-10T10:40:40;9.23;;;4.72;;
18449;SDS011;9354;50.194;7.690;2023-06-10T10:43:08;8.07;;;4.50;;
18449;SDS011;9354;50.194;7.690;2023-06-10T10:45:37;7.10;;;4.57;;
18449;SDS011;9354;50.194;7.690;2023-06-10T10:48:05;10.25;;;4.47;;
18449;SDS011;9354;50.194;7.690;2023-06-10T10:50:37;6.13;;;4.47;;
18449;SDS011;9354;50.194;7.690;2023-06-10T10:53:06;5.30;;;4.32;;
18449;SDS011;9354;50.194;7.690;2023-06-10T10:55:34;5.93;;;4.53;;
18449;SDS011;9354;50.194;7.690;2023-06-10T10:58:03;6.10;;;4.90;;
18449;SDS011;9354;50.194;7.690;2023-06-10T11:00:32;7.07;;;4.63;;
18449;SDS011;9354;50.194;7.690;2023-06-10T11:03:04;13.27;;;4.82;;
18449;SDS011;9354;50.194;7.690;2023-06-10T11:05:37;7.78;;;5.00;;
18449;SDS011;9354;50.194;7.690;2023-06-10T11:08:07;6.07;;;4.70;;
18449;SDS011;9354;50.194;7.690;2023-06-10T11:10:37;8.23;;;4.85;;
18449;SDS011;9354;50.194;7.690;2023-06-10T11:13:06;8.20;;;4.75;;
18449;SDS011;9354;50.194;7.690;2023-06-10T11:15:38;11.68;;;4.85;;
18449;SDS011;9354;50.194;7.690;2023-06-10T11:18:07;6.15;;;4.97;;
18449;SDS011;9354;50.194;7.690;2023-06-10T11:20:45;6.47;;;4.72;;
18449;SDS011;9354;50.194;7.690;2023-06-10T11:26:17;8.13;;;4.68;;
18449;SDS011;9354;50.194;7.690;2023-06-10T11:29:01;9.35;;;4.85;;
18449;SDS011;9354;50.194;7.690;2023-06-10T11:31:38;8.30;;;4.68;;
18449;SDS011;9354;50.194;7.690;2023-06-10T11:34:13;10.88;;;5.60;;
18449;SDS011;9354;50.194;7.690;2023-06-10T11:36:41;8.13;;;4.47;;
18449;SDS011;9354;50.194;7.690;2023-06-10T11:39:11;9.70;;;4.68;;
18449;SDS011;9354;50.194;7.690;2023-06-10T11:41:40;7.05;;;4.57;;
18449;SDS011;9354;50.194;7.690;2023-06-10T11:44:07;7.80;;;4.63;;
18449;SDS011;9354;50.194;7.690;2023-06-10T11:46:36;7.32;;;4.10;;
18449;SDS011;9354;50.194;7.690;2023-06-10T11:49:04;7.93;;;4.10;;
18449;SDS011;9354;50.194;7.690;2023-06-10T11:51:33;5.75;;;3.63;;
18449;SDS011;9354;50.194;7.690;2023-06-10T11:54:01;7.10;;;3.92;;
18449;SDS011;9354;50.194;7.690;2023-06-10T11:56:29;5.03;;;3.65;;
18449;SDS011;9354;50.194;7.690;2023-06-10T11:59:00;10.27;;;4.00;;
18449;SDS011;9354;50.194;7.690;2023-06-10T12:01:30;10.57;;;3.33;;
18449;SDS011;9354;50.194;7.690;2023-06-10T12:03:59;7.40;;;4.03;;
18449;SDS011;9354;50.194;7.690;2023-06-10T12:06:37;4.88;;;3.70;;
18449;SDS011;9354;50.194;7.690;2023-06-10T12:09:06;5.47;;;3.58;;
18449;SDS011;9354;50.194;7.690;2023-06-10T12:11:33;6.15;;;3.70;;
18449;SDS011;9354;50.194;7.690;2023-06-10T12:14:03;5.22;;;3.50;;
18449;SDS011;9354;50.194;7.690;2023-06-10T12:16:30;6.13;;;3.85;;
18449;SDS011;9354;50.194;7.690;2023-06-10T12:19:01;5.53;;;3.55;;
18449;SDS011;9354;50.194;7.690;2023-06-10T12:21:29;5.60;;;3.80;;
18449;SDS011;9354;50.194;7.690;2023-06-10T12:24:01;4.97;;;3.70;;
18449;SDS011;9354;50.194;7.690;2023-06-10T12:26:34;6.35;;;3.38;;
18449;SDS011;9354;50.194;7.690;2023-06-10T12:29:12;5.22;;;3.80;;
18449;SDS011;9354;50.194;7.690;2023-06-10T12:31:57;7.88;;;4.38;;
18449;SDS011;9354;50.194;7.690;2023-06-10T12:34:29;8.27;;;4.25;;
18449;SDS011;9354;50.194;7.690;2023-06-10T12:36:58;7.35;;;4.15;;
18449;SDS011;9354;50.194;7.690;2023-06-10T12:39:25;9.43;;;4.10;;
18449;SDS011;9354;50.194;7.690;2023-06-10T12:41:53;6.53;;;4.70;;
18449;SDS011;9354;50.194;7.690;2023-06-10T12:44:29;7.50;;;4.10;;
18449;SDS011;9354;50.194;7.690;2023-06-10T12:46:57;5.95;;;4.57;;
18449;SDS011;9354;50.194;7.690;2023-06-10T12:49:25;8.10;;;4.68;;
18449;SDS011;9354;50.194;7.690;2023-06-10T12:51:53;5.18;;;3.90;;
18449;SDS011;9354;50.194;7.690;2023-06-10T12:54:20;5.75;;;4.07;;
18449;SDS011;9354;50.194;7.690;2023-06-10T12:56:48;5.00;;;4.03;;
18449;SDS011;9354;50.194;7.690;2023-06-10T12:59:16;6.20;;;4.10;;
18449;SDS011;9354;50.194;7.690;2023-06-10T13:01:45;8.07;;;4.35;;
18449;SDS011;9354;50.194;7.690;2023-06-10T13:04:17;5.47;;;4.15;;
18449;SDS011;9354;50.194;7.690;2023-06-10T13:06:45;8.88;;;4.10;;
18449;SDS011;9354;50.194;7.690;2023-06-10T13:09:12;9.50;;;4.07;;
18449;SDS011;9354;50.194;7.690;2023-06-10T13:11:41;8.00;;;4.40;;
18449;SDS011;9354;50.194;7.690;2023-06-10T13:14:10;8.40;;;4.00;;
18449;SDS011;9354;50.194;7.690;2023-06-10T13:16:38;9.30;;;4.53;;
18449;SDS011;9354;50.194;7.690;2023-06-10T13:19:06;7.50;;;4.57;;
18449;SDS011;9354;50.194;7.690;2023-06-10T13:21:34;9.68;;;3.95;;
18449;SDS011;9354;50.194;7.690;2023-06-10T13:24:02;8.88;;;4.22;;
18449;SDS011;9354;50.194;7.690;2023-06-10T13:26:30;6.72;;;4.40;;
18449;SDS011;9354;50.194;7.690;2023-06-10T13:28:57;5.95;;;4.03;;
18449;SDS011;9354;50.194;7.690;2023-06-10T13:31:24;4.20;;;3.80;;
18449;SDS011;9354;50.194;7.690;2023-06-10T13:33:52;4.20;;;3.80;;
18449;SDS011;9354;50.194;7.690;2023-06-10T13:36:21;3.97;;;3.33;;
18449;SDS011;9354;50.194;7.690;2023-06-10T13:38:48;7.55;;;4.15;;
18449;SDS011;9354;50.194;7.690;2023-06-10T13:41:16;5.28;;;3.83;;
18449;SDS011;9354;50.194;7.690;2023-06-10T13:43:43;6.13;;;4.30;;
18449;SDS011;9354;50.194;7.690;2023-06-10T13:46:10;7.68;;;4.43;;
18449;SDS011;9354;50.194;7.690;2023-06-10T13:48:38;6.47;;;4.22;;
18449;SDS011;9354;50.194;7.690;2023-06-10T13:51:06;6.07;;;4.22;;
18449;SDS011;9354;50.194;7.690;2023-06-10T13:53:36;4.75;;;3.80;;
18449;SDS011;9354;50.194;7.690;2023-06-10T13:56:03;6.97;;;4.10;;
18449;SDS011;9354;50.194;7.690;2023-06-10T13:58:31;5.75;;;3.70;;
18449;SDS011;9354;50.194;7.690;2023-06-10T14:00:59;6.70;;;3.65;;
18449;SDS011;9354;50.194;7.690;2023-06-10T14:03:27;6.68;;;4.18;;
18449;SDS011;9354;50.194;7.690;2023-06-10T14:05:54;5.07;;;4.35;;
18449;SDS011;9354;50.194;7.690;2023-06-10T14:08:21;6.68;;;4.15;;
18449;SDS011;9354;50.194;7.690;2023-06-10T14:10:50;6.35;;;3.63;;
18449;SDS011;9354;50.194;7.690;2023-06-10T14:13:20;8.52;;;4.10;;
18449;SDS011;9354;50.194;7.690;2023-06-10T14:15:48;9.82;;;4.30;;
18449;SDS011;9354;50.194;7.690;2023-06-10T14:18:15;7.95;;;4.72;;
18449;SDS011;9354;50.194;7.690;2023-06-10T14:20:42;5.70;;;4.30;;
18449;SDS011;9354;50.194;7.690;2023-06-10T14:23:10;5.50;;;3.33;;
18449;SDS011;9354;50.194;7.690;2023-06-10T14:25:37;6.50;;;4.07;;
18449;SDS011;9354;50.194;7.690;2023-06-10T14:28:06;5.18;;;4.25;;
18449;SDS011;9354;50.194;7.690;2023-06-10T14:30:33;7.68;;;4.28;;
18449;SDS011;9354;50.194;7.690;2023-06-10T14:33:01;5.53;;;4.00;;
18449;SDS011;9354;50.194;7.690;2023-06-10T14:35:28;7.65;;;4.15;;
18449;SDS011;9354;50.194;7.690;2023-06-10T14:37:55;6.22;;;4.28;;
18449;SDS011;9354;50.194;7.690;2023-06-10T14:40:23;9.13;;;4.40;;
18449;SDS011;9354;50.194;7.690;2023-06-10T14:42:54;7.75;;;4.57;;
18449;SDS011;9354;50.194;7.690;2023-06-10T14:45:22;6.93;;;4.43;;
18449;SDS011;9354;50.194;7.690;2023-06-10T14:47:50;6.35;;;4.45;;
18449;SDS011;9354;50.194;7.690;2023-06-10T14:50:18;10.70;;;4.03;;
18449;SDS011;9354;50.194;7.690;2023-06-10T14:52:45;6.63;;;4.30;;
18449;SDS011;9354;50.194;7.690;2023-06-10T14:55:13;6.32;;;4.00;;
18449;SDS011;9354;50.194;7.690;2023-06-10T14:57:41;5.43;;;4.00;;
18449;SDS011;9354;50.194;7.690;2023-06-10T15:00:09;4.22;;;3.63;;
18449;SDS011;9354;50.194;7.690;2023-06-10T15:02:42;6.15;;;4.25;;
18449;SDS011;9354;50.194;7.690;2023-06-10T15:05:09;7.85;;;4.22;;
18449;SDS011;9354;50.194;7.690;2023-06-10T15:07:37;4.88;;;3.88;;